To NAV CANADA Home Page Login to a new session Search on AWWS site Feedback and Comments Disclaimer Vers la page française équivalente Tips FAQ What's new on the site To the Forecasts and Observations / NOTAM section To "File a Flight Plan" website Publications and other links Update of the User's profile FIC Telephone Numbers My Weather Data Folder Route Weather Data Regional Weather Data Local Weather Data To the Forecasts and Observations / NOTAM section
Request Generated 04/21/2014 at 07:17:10 UTC . Weather information available at that time is displayed.

METAR/TAF

KINDERSLEY/KINDERSLEY REGIONAL/SK    

METAR CYKY 210700Z 16006KT 15SM FEW260 M01/M01 A3011 RMK CI2 SLP221=
METAR CYKY 210600Z 18004KT 15SM FEW260 M00/M01 A3010 RMK CI2 SLP215=
METAR CYKY 210500Z 21004KT 15SM FEW080 BKN260 M02/M02 A3010 RMK
AC2CI3 SLP216=

CYKY - No TAF is issued for this station

Your time UTC time
Weather data provided by Environment Canada and NAV CANADA